Quick Links (Output Below):   Max & Min Temps   /   Climate Reports   /   Zone Forecasts
River Forecasts   /   Forestry Forecasts   /   Aviation Forecasts   /   Radars   /   Features

Terminal Aerodrome Forecast (Fayetteville)

Pick a Site:
Arkadelphia | El Dorado | Fayetteville | Fort Smith | Harrison | Highfill | Hot Springs | Jonesboro
Little Rock | Monticello | Mountain Home | Pine Bluff | Texarkana
 Forecast 

KFYV 301133Z 3012/3112 17004KT P6SM BKN080
      TEMPO 3012/3014 5SM BR
     FM301800 17008KT P6SM SCT040 BKN100
     FM310100 17003KT P6SM SCT120=


 Latest METARs (Observations) 
How to Decode METARs
12Z KFYV 301153Z 00000KT 4SM BR CLR 21/21 A3001 RMK AO2 SLP150
         T02060206 10222 20206 53005
         
11Z KFYV 301053Z 10004KT 6SM BR FEW075 BKN095 BKN110 21/21 A3000 RMK
         AO2 SLP145 T02110211
         
10Z KFYV 300953Z AUTO 00000KT 5SM BR BKN075 OVC095 22/21 A2999 RMK AO2
         SLP141 T02170211
         
09Z KFYV 300853Z AUTO 00000KT 7SM BKN070 OVC080 22/21 A3000 RMK AO2
         SLP142 T02220211 56008
         
08Z KFYV 300753Z AUTO 00000KT 7SM OVC060 22/21 A3000 RMK AO2 SLP141
         T02220206
         
07Z KFYV 300653Z AUTO 00000KT 6SM BR FEW060 SCT100 BKN120 22/21 A3001
         RMK AO2 SLP147 T02170211
         
06Z KFYV 300553Z AUTO 00000KT 2 1/2SM BR BKN100 22/21 A3002 RMK AO2
         SLP150 T02220206 10250 20217 403000200 50001
         
05Z KFYV 300453Z AUTO 00000KT 4SM BR CLR 22/21 A3002 RMK AO2 SLP151
         T02220206
         
04Z KFYV 300353Z AUTO 00000KT 10SM SCT090 BKN110 22/21 A3002 RMK AO2
         LTG DSNT NW SLP151 T02220211
         
03Z KFYV 300253Z AUTO 00000KT 10SM BKN095 22/21 A3002 RMK AO2 LTG DSNT
         N AND NE SLP151 T02170211 53008
         
***** Today's Observations (Above) *****


Back to Main Page
http://www.srh.noaa.gov/lzk/qfcst.php

USA.gov is the U.S. government's official web portal to all federal, state and local government web resources and services.